createdAt,value
2023-01-15T00:01:06.411Z,3.7
2023-01-15T00:05:08.215Z,3.7
2023-01-15T00:10:08.582Z,1.8
2023-01-15T00:15:08.446Z,1.8
2023-01-15T00:20:08.282Z,2.4
2023-01-15T00:25:18.057Z,2.4
2023-01-15T00:30:07.867Z,3.2
2023-01-15T00:35:15.207Z,3.2
2023-01-15T00:40:08.023Z,3.3
2023-01-15T00:45:07.841Z,3.3
2023-01-15T00:50:07.911Z,4.4
2023-01-15T00:55:08.707Z,4.4
2023-01-15T01:00:08.506Z,5.1
2023-01-15T01:05:08.494Z,5.1
2023-01-15T01:10:08.299Z,3.5
2023-01-15T01:15:08.067Z,3.5
2023-01-15T01:20:07.860Z,2.9
2023-01-15T01:25:08.641Z,2.9
2023-01-15T01:30:08.447Z,3.6
2023-01-15T01:35:08.259Z,3.6
2023-01-15T01:40:08.054Z,3.8
2023-01-15T01:45:07.847Z,3.8
2023-01-15T01:50:08.637Z,2.7
2023-01-15T01:55:08.418Z,2.7
2023-01-15T02:00:08.207Z,3.4
2023-01-15T02:05:07.993Z,3.4
2023-01-15T02:10:07.786Z,4.6
2023-01-15T02:15:08.549Z,4.6
2023-01-15T02:20:08.385Z,3.4
2023-01-15T02:25:08.172Z,3.4
2023-01-15T02:30:07.967Z,2.6
2023-01-15T02:35:07.797Z,2.6
2023-01-15T02:40:08.606Z,2.9
2023-01-15T02:45:08.404Z,2.9
2023-01-15T02:50:08.163Z,3.2
2023-01-15T02:55:07.951Z,3.2
2023-01-15T03:00:07.731Z,2.2
2023-01-15T03:05:08.540Z,2.2
2023-01-15T03:10:08.326Z,1.8
2023-01-15T03:15:08.163Z,1.8
2023-01-15T03:20:08.014Z,2.9
2023-01-15T03:25:07.824Z,2.9
2023-01-15T03:30:08.848Z,2.8
2023-01-15T03:35:08.634Z,2.8
2023-01-15T03:40:08.454Z,3.5
2023-01-15T03:45:10.019Z,3.5
2023-01-15T03:50:07.834Z,3.9
2023-01-15T03:55:08.633Z,3.9
2023-01-15T04:00:08.437Z,3.9
2023-01-15T04:05:08.256Z,3.9
2023-01-15T04:10:08.146Z,3.8
2023-01-15T04:15:08.001Z,3.8
2023-01-15T04:20:07.829Z,3.8
2023-01-15T04:25:08.632Z,3.8
2023-01-15T04:30:08.472Z,3.1
2023-01-15T04:35:08.276Z,3.1
2023-01-15T04:40:08.126Z,4.5
2023-01-15T04:45:07.958Z,4.5
2023-01-15T04:50:07.782Z,2.3
2023-01-15T04:55:07.769Z,2.3
2023-01-15T05:00:08.567Z,3.4
2023-01-15T05:05:02.564Z,3.4
2023-01-15T05:10:02.551Z,3.6
2023-01-15T05:15:02.373Z,4.1
2023-01-15T05:20:02.223Z,3.5
2023-01-15T05:25:02.081Z,5.0
2023-01-15T05:30:02.504Z,2.8
2023-01-15T05:35:02.445Z,5.2
2023-01-15T05:40:02.374Z,2.9
2023-01-15T05:45:02.347Z,3.9
2023-01-15T05:50:02.251Z,3.9
2023-01-15T05:55:02.199Z,4.3
2023-01-15T06:00:02.139Z,3.6
2023-01-15T06:05:02.073Z,3.6
2023-01-15T06:10:02.077Z,5.6
2023-01-15T06:15:02.013Z,5.6
2023-01-15T06:20:01.984Z,4.6
2023-01-15T06:25:01.888Z,4.6
2023-01-15T06:30:02.942Z,3.0
2023-01-15T06:35:01.878Z,3.0
2023-01-15T06:40:02.792Z,3.8
2023-01-15T06:45:02.643Z,5.6
2023-01-15T06:50:02.573Z,4.3
2023-01-15T06:55:02.408Z,5.1
2023-01-15T07:00:02.228Z,5.1
2023-01-15T07:05:02.083Z,4.2
2023-01-15T07:10:01.892Z,4.2
2023-01-15T07:15:02.946Z,4.0
2023-01-15T07:20:01.872Z,3.5
2023-01-15T07:25:02.865Z,2.9
2023-01-15T07:30:02.886Z,3.3
2023-01-15T07:35:02.906Z,3.3
2023-01-15T07:40:02.823Z,4.2
2023-01-15T07:45:12.743Z,4.2
2023-01-15T07:50:02.686Z,5.2
2023-01-15T07:55:02.706Z,5.2
2023-01-15T08:00:02.675Z,3.1
2023-01-15T08:05:02.480Z,4.5
2023-01-15T08:10:02.346Z,5.3
2023-01-15T08:15:02.273Z,6.3
2023-01-15T08:20:02.208Z,3.9
2023-01-15T08:25:02.147Z,3.9
2023-01-15T08:30:02.070Z,3.9
2023-01-15T08:35:01.994Z,3.8
2023-01-15T08:40:01.957Z,3.8
2023-01-15T08:45:01.871Z,8.6
2023-01-15T08:50:02.903Z,8.6
2023-01-15T08:55:02.018Z,5.5
2023-01-15T09:00:01.989Z,5.5
2023-01-15T09:05:02.005Z,3.2
2023-01-15T09:10:01.987Z,4.1
2023-01-15T09:15:02.994Z,4.1
2023-01-15T09:20:02.432Z,3.8
2023-01-15T09:25:02.346Z,3.9
2023-01-15T09:30:02.305Z,3.9
2023-01-15T09:35:02.196Z,4.4
2023-01-15T09:40:02.156Z,4.4
2023-01-15T09:45:02.066Z,5.9
2023-01-15T09:50:11.979Z,5.9
2023-01-15T09:55:01.888Z,3.2
2023-01-15T10:00:02.778Z,4.6
2023-01-15T10:05:04.962Z,4.6
2023-01-15T10:10:02.730Z,6.8
2023-01-15T10:15:02.760Z,6.8
2023-01-15T10:20:02.763Z,4.5
2023-01-15T10:25:02.627Z,4.5
2023-01-15T10:30:02.500Z,4.7
2023-01-15T10:35:07.756Z,4.7
2023-01-15T10:40:02.620Z,9.7
2023-01-15T10:45:02.578Z,6.2
2023-01-15T10:50:02.480Z,6.2
2023-01-15T10:55:02.407Z,4.9
2023-01-15T11:00:02.401Z,4.9
2023-01-15T11:05:02.257Z,5.7
2023-01-15T11:10:02.275Z,4.3
2023-01-15T11:15:02.252Z,4.3
2023-01-15T11:20:02.165Z,5.3
2023-01-15T11:25:02.192Z,5.3
2023-01-15T11:30:02.142Z,8.6
2023-01-15T11:35:02.088Z,7.4
2023-01-15T11:40:02.033Z,7.4
2023-01-15T11:45:02.158Z,7.1
2023-01-15T11:50:02.099Z,7.1
2023-01-15T11:55:02.105Z,4.9
2023-01-15T12:00:02.059Z,5.1
2023-01-15T12:05:01.967Z,10.4
2023-01-15T12:10:01.906Z,7.7
2023-01-15T12:15:01.815Z,7.7
2023-01-15T12:20:11.210Z,8.6
2023-01-15T12:25:02.106Z,8.6
2023-01-15T12:30:02.065Z,7.3
2023-01-15T12:35:01.963Z,7.3
2023-01-15T12:40:01.927Z,3.4
2023-01-15T12:45:01.999Z,5.2
2023-01-15T12:50:02.027Z,5.2
2023-01-15T12:55:01.888Z,4.2
2023-01-15T13:00:02.719Z,7.9
2023-01-15T13:05:02.664Z,5.8
2023-01-15T13:10:02.739Z,5.8
2023-01-15T13:15:02.643Z,6.4
2023-01-15T13:20:02.612Z,7.2
2023-01-15T13:25:02.636Z,7.9
2023-01-15T13:30:02.647Z,7.9
2023-01-15T13:35:02.623Z,6.6
2023-01-15T13:40:02.724Z,6.8
2023-01-15T13:45:02.834Z,5.8
2023-01-15T13:50:02.846Z,6.9
2023-01-15T13:55:02.771Z,5.3
2023-01-15T14:00:03.518Z,5.5
2023-01-15T14:05:12.446Z,9.3
2023-01-15T14:10:02.369Z,3.7
2023-01-15T14:15:02.245Z,3.9
2023-01-15T14:20:02.180Z,4.2
2023-01-15T14:25:02.174Z,6.9
2023-01-15T14:30:02.227Z,6.9
2023-01-15T14:35:02.199Z,7.3
2023-01-15T14:40:02.287Z,3.0
2023-01-15T14:45:02.347Z,6.0
2023-01-15T14:50:02.290Z,4.2
2023-01-15T14:55:02.279Z,4.7
2023-01-15T15:00:02.410Z,2.9
2023-01-15T15:05:02.327Z,2.6
2023-01-15T15:10:02.301Z,2.8
2023-01-15T15:15:12.163Z,1.7
2023-01-15T15:20:02.394Z,2.0
2023-01-15T15:25:02.512Z,2.5
2023-01-15T15:30:02.405Z,5.2
2023-01-15T15:35:02.355Z,2.5
2023-01-15T15:40:02.325Z,4.1
2023-01-15T15:45:02.349Z,5.6
2023-01-15T15:50:02.233Z,5.5
2023-01-15T15:55:02.293Z,6.1
2023-01-15T16:00:02.210Z,5.5
2023-01-15T16:05:02.112Z,5.5
2023-01-15T16:10:12.018Z,4.7
2023-01-15T16:15:01.877Z,5.8
2023-01-15T16:20:02.857Z,6.5
2023-01-15T16:25:02.743Z,6.5
2023-01-15T16:30:02.592Z,6.4
2023-01-15T16:35:02.594Z,6.4
2023-01-15T16:40:02.549Z,4.1
2023-01-15T16:45:02.459Z,4.1
2023-01-15T16:50:02.435Z,3.9
2023-01-15T16:55:02.441Z,6.8
2023-01-15T17:00:02.418Z,6.2
2023-01-15T17:05:02.458Z,6.2
2023-01-15T17:10:02.355Z,5.1
2023-01-15T17:15:12.272Z,5.1
2023-01-15T17:20:02.221Z,7.7
2023-01-15T17:25:02.156Z,7.7
2023-01-15T17:30:02.045Z,6.9
2023-01-15T17:35:02.036Z,6.9
2023-01-15T17:40:01.928Z,5.7
2023-01-15T17:45:03.014Z,5.7
2023-01-15T17:50:01.904Z,3.3
2023-01-15T17:55:02.856Z,8.9
2023-01-15T18:00:02.841Z,4.3
2023-01-15T18:05:02.816Z,4.3
2023-01-15T18:10:02.877Z,5.0
2023-01-15T18:15:02.992Z,5.0
2023-01-15T18:20:01.890Z,4.2
2023-01-15T18:25:02.876Z,4.8
2023-01-15T18:30:02.784Z,4.8
2023-01-15T18:35:02.719Z,5.6
2023-01-15T18:40:02.664Z,5.6
2023-01-15T18:45:02.577Z,6.0
2023-01-15T18:50:02.466Z,6.0
2023-01-15T18:55:02.559Z,3.5
2023-01-15T19:00:02.564Z,3.5
2023-01-15T19:05:02.468Z,3.9
2023-01-15T19:10:02.406Z,3.9
2023-01-15T19:15:02.397Z,5.5
2023-01-15T19:20:02.384Z,5.5
2023-01-15T19:25:02.562Z,6.0
2023-01-15T19:30:02.447Z,6.0
2023-01-15T19:35:02.298Z,5.3
2023-01-15T19:40:02.197Z,5.3
2023-01-15T19:45:02.096Z,5.3
2023-01-15T19:50:02.001Z,5.3
2023-01-15T19:55:01.880Z,4.9
2023-01-15T20:00:02.798Z,4.9
2023-01-15T20:05:02.705Z,4.9
2023-01-15T20:10:02.805Z,3.9
2023-01-15T20:15:02.812Z,3.9
2023-01-15T20:20:02.792Z,2.5
2023-01-15T20:25:02.758Z,2.5
2023-01-15T20:30:02.746Z,3.5
2023-01-15T20:35:02.670Z,3.5
2023-01-15T20:40:02.705Z,2.4
2023-01-15T20:45:02.606Z,2.4
2023-01-15T20:50:02.543Z,2.2
2023-01-15T20:55:02.578Z,1.3
2023-01-15T21:00:02.547Z,3.4
2023-01-15T21:05:02.511Z,1.2
2023-01-15T21:10:02.396Z,1.2
2023-01-15T21:15:02.370Z,1.6
2023-01-15T21:20:02.261Z,1.6
2023-01-15T21:25:02.333Z,2.0
2023-01-15T21:30:02.227Z,2.0
2023-01-15T21:35:02.180Z,1.9
2023-01-15T21:40:02.079Z,1.9
2023-01-15T21:45:02.042Z,1.4
2023-01-15T21:50:01.933Z,1.4
2023-01-15T21:55:01.938Z,3.6
2023-01-15T22:00:01.877Z,3.2
2023-01-15T22:05:03.284Z,3.2
2023-01-15T22:10:02.191Z,2.7
2023-01-15T22:15:02.245Z,2.7
2023-01-15T22:20:02.424Z,2.2
2023-01-15T22:25:02.298Z,2.2
2023-01-15T22:30:02.251Z,1.3
2023-01-15T22:35:02.361Z,1.3
2023-01-15T22:40:02.305Z,1.9
2023-01-15T22:45:02.396Z,1.9
2023-01-15T22:50:02.484Z,4.2
2023-01-15T22:55:02.409Z,4.2
2023-01-15T23:00:02.324Z,2.7
2023-01-15T23:05:08.143Z,1.8
2023-01-15T23:10:07.959Z,4.0
2023-01-15T23:15:07.785Z,1.8
2023-01-15T23:20:08.605Z,4.7
2023-01-15T23:25:08.417Z,4.2
2023-01-15T23:30:08.229Z,2.9
2023-01-15T23:35:08.064Z,3.8
2023-01-15T23:40:07.877Z,5.2
2023-01-15T23:45:08.735Z,4.1
2023-01-15T23:50:08.538Z,2.6
2023-01-15T23:55:08.351Z,3.3
